Terminal Aerodrome Forecast
Issued by NWS Wichita, KS

Home | Current Version | Previous Version | Text Only | Print | Product List | Glossary On
Versions: 1 2 3 4 5 6 7 8 9 10 11 12 13 14 15 16 17 18 19 20
349
FTUS43 KICT 290520
TAFICT
TAF
KICT 290520Z 2906/3006 03015G22KT P6SM SCT007 OVC015
     FM290700 02015G22KT 5SM SHRA OVC007
     FM291600 02018G25KT P6SM -SHRA OVC007=

USA.gov is the U.S. government's official web portal to all federal, state and local government web resources and services.